Time;durP1;ratioP1;P1;durP2;ratioP2;P2;SDS_P1;SDS_P2;PMS_P1;PMS_P2;Temp;Humidity;BMP_temperature;BMP_pressure;BME280_temperature;BME280_humidity;BME280_pressure;Samples;Min_cycle;Max_cycle;Signal;HPM_P1;HPM_P2
2021/12/22 00:02:00;;;;;;;23.27;12.20;;;;;;;2.38;92.28;100993.72;4970806;28;20114;-89
2021/12/22 00:04:27;;;;;;;27.58;12.52;;;;;;;2.56;91.90;101004.50;4961770;28;20034;-89
2021/12/22 00:06:53;;;;;;;30.08;13.10;;;;;;;1.92;91.92;100907.25;4973272;28;20113;-89
2021/12/22 00:09:19;;;;;;;28.45;13.50;;;;;;;2.00;91.88;100926.63;4971851;28;20082;-89
2021/12/22 00:11:48;;;;;;;24.23;11.95;;;;;;;2.12;93.08;100963.56;4971878;28;20116;-89
2021/12/22 00:14:14;;;;;;;33.08;13.65;;;;;;;2.29;92.93;100995.31;4946673;28;20089;-89
2021/12/22 00:16:40;;;;;;;26.83;13.13;;;;;;;2.40;93.37;101020.88;4973520;28;20065;-89
2021/12/22 00:19:05;;;;;;;26.13;12.93;;;;;;;1.74;93.85;100895.56;4972192;28;20053;-89
2021/12/22 00:21:31;;;;;;;37.80;14.25;;;;;;;2.39;93.21;100995.47;4972377;28;20026;-89
2021/12/22 00:23:56;;;;;;;29.23;13.18;;;;;;;2.10;95.04;101004.63;4971221;28;20042;-88
2021/12/22 00:26:22;;;;;;;29.60;12.98;;;;;;;1.58;96.33;100923.28;4959341;28;20135;-89
2021/12/22 00:28:49;;;;;;;30.77;12.98;;;;;;;1.19;96.50;100857.03;4957290;28;20033;-89
2021/12/22 00:31:18;;;;;;;29.38;13.18;;;;;;;1.44;96.71;100889.78;4954398;28;20046;-89
2021/12/22 00:34:17;;;;;;;34.67;14.90;;;;;;;2.29;96.22;101017.19;4971350;28;20038;-89
2021/12/22 00:36:44;;;;;;;29.15;11.98;;;;;;;2.02;95.97;100982.63;4954140;28;20023;-89
2021/12/22 00:39:10;;;;;;;24.45;12.48;;;;;;;1.75;95.96;100944.53;4955723;28;20134;-89
2021/12/22 00:41:36;;;;;;;26.45;13.07;;;;;;;2.01;96.48;100993.09;4971336;28;20122;-89
2021/12/22 00:44:01;;;;;;;32.78;15.05;;;;;;;2.12;96.74;101016.03;4955735;28;20554;-89
2021/12/22 00:46:27;;;;;;;46.22;16.95;;;;;;;2.06;96.40;100987.06;4966671;28;20494;-88
2021/12/22 00:48:52;;;;;;;31.60;14.23;;;;;;;2.52;94.55;101015.81;4955999;28;20562;-89
2021/12/22 00:51:21;;;;;;;32.33;13.10;;;;;;;2.64;93.60;100997.63;4954921;28;20478;-89
2021/12/22 00:53:49;;;;;;;35.13;13.18;;;;;;;2.61;92.66;100987.06;4946183;28;20081;-89
2021/12/22 00:56:15;;;;;;;30.63;13.95;;;;;;;2.02;92.39;100900.41;4939642;28;20167;-89
2021/12/22 00:58:41;;;;;;;33.20;14.30;;;;;;;2.62;92.98;101001.97;4972087;28;20125;-89
2021/12/22 01:01:06;;;;;;;34.80;13.02;;;;;;;2.51;92.96;100972.03;4970626;28;20729;-89
2021/12/22 01:03:35;;;;;;;26.65;12.63;;;;;;;2.54;92.18;100974.72;4971363;28;20050;-89
2021/12/22 01:06:01;;;;;;;31.90;12.82;;;;;;;2.46;92.03;100986.84;4972246;28;20034;-89
2021/12/22 01:08:26;;;;;;;31.63;14.60;;;;;;;2.45;92.19;100958.84;4965044;28;20084;-89
2021/12/22 01:10:52;;;;;;;25.08;11.65;;;;;;;2.03;92.10;100912.66;4971973;28;20034;-89
2021/12/22 01:13:18;;;;;;;30.75;13.85;;;;;;;2.53;91.71;101007.09;4965099;28;20027;-89
2021/12/22 01:15:44;;;;;;;29.17;12.52;;;;;;;2.47;92.06;101006.97;4982559;28;20027;-89
2021/12/22 01:18:13;;;;;;;26.25;12.80;;;;;;;2.41;92.40;101003.38;4970781;28;20028;-89
2021/12/22 01:23:26;;;;;;;29.38;12.65;;;;;;;2.54;93.54;101006.22;4969454;28;20046;-89
2021/12/22 01:25:53;;;;;;;33.05;13.35;;;;;;;2.62;92.03;100987.94;4970205;28;20433;-89
2021/12/22 01:28:22;;;;;;;30.23;12.98;;;;;;;2.58;92.80;101007.16;4963178;28;20126;-89
2021/12/22 01:30:49;;;;;;;32.45;13.23;;;;;;;2.50;92.69;101001.75;4966904;28;20177;-89
2021/12/22 01:33:16;;;;;;;34.30;14.40;;;;;;;2.38;93.73;100991.09;4966985;28;20062;-89
2021/12/22 01:35:42;;;;;;;27.13;11.98;;;;;;;1.99;93.24;100917.00;4970704;28;20034;-89
2021/12/22 01:38:09;;;;;;;22.98;12.07;;;;;;;2.50;92.82;101009.63;4965723;28;20029;-89
2021/12/22 01:40:38;;;;;;;31.70;12.10;;;;;;;1.90;93.62;100897.56;4935293;29;20035;-89
2021/12/22 01:43:05;;;;;;;30.77;14.52;;;;;;;2.42;93.34;100990.25;4940614;28;20101;-89
2021/12/22 01:51:40;;;;;;;31.03;11.40;;;;;;;2.27;93.00;100968.16;4975820;28;20123;-89
2021/12/22 01:54:24;;;;;;;28.67;12.30;;;;;;;2.58;92.76;101013.28;4957958;28;20277;-89
2021/12/22 01:56:51;;;;;;;27.90;12.75;;;;;;;2.49;92.59;100991.25;4973828;28;20138;-89
2021/12/22 01:59:20;;;;;;;27.27;14.07;;;;;;;2.57;92.24;101021.16;4966054;28;20023;-89
2021/12/22 02:01:46;;;;;;;31.05;12.77;;;;;;;2.60;92.02;101014.19;4956415;28;20479;-89
2021/12/22 02:04:12;;;;;;;30.25;13.20;;;;;;;2.48;91.71;100990.38;4973576;28;20045;-89
2021/12/22 02:06:43;;;;;;;27.63;11.40;;;;;;;2.43;91.85;100992.06;4973559;28;20043;-89
2021/12/22 02:09:11;;;;;;;26.33;11.95;;;;;;;2.15;91.86;100958.34;4957085;28;20140;-89
2021/12/22 02:11:37;;;;;;;24.70;11.25;;;;;;;1.87;90.67;100893.19;4972863;28;20108;-89
2021/12/22 02:14:05;;;;;;;29.05;12.25;;;;;;;2.33;90.00;100978.75;4965005;28;20491;-88
2021/12/22 02:16:35;;;;;;;32.88;12.20;;;;;;;2.51;90.23;101010.53;4971741;28;20035;-89
2021/12/22 02:19:03;;;;;;;31.00;12.88;;;;;;;2.55;89.49;101013.22;4972577;28;20034;-89
2021/12/22 02:21:33;;;;;;;26.80;11.93;;;;;;;2.02;89.78;100935.41;4974064;28;20035;-89
2021/12/22 02:23:59;;;;;;;27.02;12.48;;;;;;;2.46;90.28;100992.09;4976785;28;20025;-89
2021/12/22 02:26:34;;;;;;;25.23;11.82;;;;;;;2.46;89.92;100992.09;4972861;28;20695;-89
2021/12/22 02:29:05;;;;;;;24.73;12.18;;;;;;;2.47;89.34;100988.59;4972833;28;20038;-89
2021/12/22 02:31:38;;;;;;;26.85;11.73;;;;;;;2.44;89.54;100999.06;4957506;28;20027;-89
2021/12/22 02:34:03;;;;;;;28.25;12.95;;;;;;;2.10;90.42;100918.03;4953976;28;20085;-89
2021/12/22 02:36:35;;;;;;;27.40;12.23;;;;;;;1.81;89.05;100865.97;4958208;28;20079;-89
2021/12/22 02:39:01;;;;;;;23.15;12.20;;;;;;;2.36;87.86;100969.19;4971902;28;20053;-89
2021/12/22 02:41:30;;;;;;;28.27;12.10;;;;;;;2.26;88.45;100983.00;4972825;28;20034;-89
2021/12/22 02:43:58;;;;;;;34.42;12.40;;;;;;;2.52;88.98;101002.69;4972510;28;20495;-89
2021/12/22 02:46:25;;;;;;;27.30;11.80;;;;;;;2.51;88.39;101010.53;4974368;28;20027;-89
2021/12/22 02:48:51;;;;;;;23.45;11.88;;;;;;;2.19;89.19;100978.53;4956934;28;20030;-89
2021/12/22 02:51:21;;;;;;;32.50;13.55;;;;;;;2.36;88.65;101007.66;4972910;28;20094;-89
2021/12/22 02:54:01;;;;;;;23.77;9.98;;;;;;;2.23;89.13;100982.09;4957244;28;20114;-89
2021/12/22 02:56:35;;;;;;;36.83;13.18;;;;;;;2.45;89.37;101016.59;4972589;28;20074;-89
2021/12/22 02:59:09;;;;;;;23.25;11.27;;;;;;;2.31;89.65;100986.59;4955778;28;20367;-88
2021/12/22 03:04:22;;;;;;;28.23;13.57;;;;;;;2.34;88.81;101007.63;4973613;28;20117;-89
2021/12/22 03:09:26;;;;;;;26.77;12.35;;;;;;;2.42;89.05;101021.78;4972828;28;20054;-89
2021/12/22 03:11:53;;;;;;;23.67;11.15;;;;;;;2.42;89.34;101013.03;4968273;28;20023;-88
2021/12/22 03:14:20;;;;;;;29.48;11.35;;;;;;;1.95;88.56;100953.63;4949913;28;20505;-89
2021/12/22 03:16:47;;;;;;;28.63;12.85;;;;;;;2.21;89.26;101024.06;4959001;28;20026;-89
2021/12/22 03:19:17;;;;;;;34.22;12.68;;;;;;;2.21;89.86;101016.19;4955516;28;20033;-89
2021/12/22 03:21:43;;;;;;;33.55;12.90;;;;;;;1.97;88.78;100989.53;4972196;28;20027;-89
2021/12/22 03:24:11;;;;;;;24.50;11.70;;;;;;;2.09;89.10;101020.34;4972990;28;20394;-89
2021/12/22 03:26:44;;;;;;;32.22;14.43;;;;;;;2.10;89.63;101033.50;4963115;28;20030;-88
2021/12/22 03:29:15;;;;;;;28.02;12.10;;;;;;;2.13;90.05;101033.53;4971709;28;20030;-89
2021/12/22 03:31:42;;;;;;;31.63;12.23;;;;;;;1.92;90.47;100974.56;4971873;28;20042;-89
2021/12/22 03:34:09;;;;;;;29.38;12.27;;;;;;;1.96;90.33;100981.63;4955783;28;20058;-89
2021/12/22 03:36:36;;;;;;;30.83;11.27;;;;;;;2.23;90.35;101024.97;4972363;28;20033;-89
2021/12/22 03:39:04;;;;;;;30.23;11.77;;;;;;;2.17;90.26;100993.38;4968840;28;20526;-89
2021/12/22 03:41:30;;;;;;;26.33;12.52;;;;;;;2.17;90.39;101003.88;4956600;28;20054;-88
2021/12/22 03:43:55;;;;;;;26.95;12.13;;;;;;;2.11;89.70;100980.13;4972445;28;20023;-88
2021/12/22 03:46:22;;;;;;;26.67;10.43;;;;;;;2.18;90.40;101000.38;4954873;28;20034;-89
2021/12/22 03:48:48;;;;;;;24.27;11.02;;;;;;;2.18;89.46;100989.00;4961621;28;20027;-88
2021/12/22 03:51:14;;;;;;;26.45;12.65;;;;;;;2.02;90.20;100974.75;4968365;28;20704;-89
2021/12/22 03:53:39;;;;;;;31.40;11.85;;;;;;;2.13;90.10;101002.03;4975462;28;20041;-89
2021/12/22 03:56:05;;;;;;;25.58;11.10;;;;;;;2.31;90.21;101010.22;4971945;28;20022;-88
2021/12/22 03:58:31;;;;;;;24.88;11.65;;;;;;;1.98;89.20;100940.56;4954364;28;20117;-89
2021/12/22 04:00:56;;;;;;;27.83;12.70;;;;;;;2.08;89.86;100971.31;4956724;28;20019;-89
2021/12/22 04:03:27;;;;;;;23.80;11.48;;;;;;;2.06;89.80;100971.31;4952833;28;20035;-89
2021/12/22 04:05:53;;;;;;;29.90;13.38;;;;;;;2.11;89.34;100988.00;4953776;28;20126;-89
2021/12/22 04:08:18;;;;;;;31.02;12.65;;;;;;;1.88;90.92;100975.38;4959309;28;20133;-89
2021/12/22 04:10:49;;;;;;;27.50;14.02;;;;;;;1.88;90.60;100971.00;4955925;28;20502;-89
2021/12/22 04:13:15;;;;;;;29.58;12.63;;;;;;;1.87;90.98;100977.13;4971546;28;20026;-89
2021/12/22 04:15:42;;;;;;;28.33;12.60;;;;;;;1.94;90.69;101010.47;4973650;28;20049;-89
2021/12/22 04:18:07;;;;;;;25.77;11.68;;;;;;;1.21;91.97;100920.81;4972215;28;20049;-89
2021/12/22 04:20:34;;;;;;;28.02;12.38;;;;;;;1.93;91.99;101013.06;4955608;28;20026;-89
2021/12/22 04:23:03;;;;;;;27.70;12.07;;;;;;;2.09;91.69;101004.59;4970333;28;20121;-89
2021/12/22 04:25:28;;;;;;;29.25;11.73;;;;;;;2.12;91.28;101002.91;4971181;28;20027;-90
2021/12/22 04:27:57;;;;;;;32.15;11.27;;;;;;;1.44;90.19;100900.28;4970906;28;20046;-89
2021/12/22 04:30:24;;;;;;;24.42;11.25;;;;;;;2.06;91.10;101008.03;4971286;28;20030;-89
2021/12/22 04:32:51;;;;;;;27.20;10.55;;;;;;;2.06;90.73;101007.19;4972035;28;20372;-89
2021/12/22 04:35:17;;;;;;;23.73;11.20;;;;;;;1.89;90.51;100995.50;4951963;28;20371;-89
2021/12/22 04:37:43;;;;;;;27.77;11.70;;;;;;;1.32;90.87;100899.22;4954915;28;20027;-89
2021/12/22 04:40:09;;;;;;;29.33;12.60;;;;;;;1.96;91.84;100986.88;4954435;28;20375;-89
2021/12/22 04:42:34;;;;;;;27.02;12.85;;;;;;;1.98;91.41;100988.66;4972170;28;20054;-89
2021/12/22 04:45:03;;;;;;;21.10;10.52;;;;;;;1.81;90.49;100966.53;4956169;28;20050;-89
2021/12/22 04:47:29;;;;;;;27.88;13.63;;;;;;;1.38;90.28;100914.19;4973034;28;20027;-89
2021/12/22 04:49:55;;;;;;;26.00;10.98;;;;;;;1.68;90.73;100947.91;4945867;28;20023;-89
2021/12/22 04:52:23;;;;;;;28.25;12.63;;;;;;;1.91;90.99;101005.16;4955599;28;20033;-89
2021/12/22 04:55:03;;;;;;;24.02;10.80;;;;;;;1.74;91.14;100975.13;4972517;28;20398;-88
2021/12/22 04:57:32;;;;;;;27.88;12.43;;;;;;;1.92;90.68;100980.69;4971002;28;20112;-89
2021/12/22 05:00:00;;;;;;;29.77;12.18;;;;;;;1.93;91.10;100979.84;4952199;28;20038;-89
2021/12/22 05:02:26;;;;;;;24.45;11.20;;;;;;;1.45;90.81;100883.72;4989842;28;20057;-89
2021/12/22 05:04:51;;;;;;;31.00;12.20;;;;;;;1.84;90.08;100971.81;4952532;28;20046;-89
2021/12/22 05:07:17;;;;;;;30.15;11.77;;;;;;;1.88;90.15;100965.75;4954355;28;20026;-89
2021/12/22 05:09:45;;;;;;;28.67;10.98;;;;;;;1.42;89.66;100930.84;4979269;28;20511;-89
2021/12/22 05:12:10;;;;;;;32.58;13.10;;;;;;;1.74;89.76;100975.13;4954899;28;20086;-89
2021/12/22 05:14:36;;;;;;;31.27;11.90;;;;;;;1.62;89.27;100927.72;4954211;28;20023;-89
2021/12/22 05:17:05;;;;;;;30.23;12.75;;;;;;;1.77;89.83;100954.19;4970302;28;20026;-89
2021/12/22 05:19:31;;;;;;;30.88;14.10;;;;;;;1.75;89.83;100955.91;4953002;28;20054;-89
2021/12/22 05:21:56;;;;;;;29.75;12.15;;;;;;;1.46;89.50;100920.44;4958642;28;20395;-89
2021/12/22 05:24:22;;;;;;;29.40;11.55;;;;;;;1.16;89.11;100885.78;4951941;29;20034;-89
2021/12/22 05:26:49;;;;;;;27.77;10.50;;;;;;;2.06;89.17;101010.66;4954265;28;20114;-88
2021/12/22 05:29:14;;;;;;;26.58;10.98;;;;;;;1.96;89.22;100987.75;4954716;28;20041;-89
2021/12/22 05:31:40;;;;;;;28.80;13.15;;;;;;;1.92;88.37;101008.66;4953965;28;20022;-88
2021/12/22 05:34:06;;;;;;;30.67;11.60;;;;;;;1.62;87.86;100959.16;4954669;28;20077;-90
2021/12/22 05:36:31;;;;;;;29.77;13.27;;;;;;;1.93;88.79;101003.44;4962305;28;20147;-89
2021/12/22 05:38:57;;;;;;;35.67;12.02;;;;;;;1.83;88.13;100959.53;4968690;28;20094;-89
2021/12/22 05:41:26;;;;;;;29.42;12.13;;;;;;;2.12;87.93;100987.16;4955485;28;20501;-89
2021/12/22 05:43:52;;;;;;;29.67;12.93;;;;;;;2.17;87.35;101001.25;4962221;28;20061;-89
2021/12/22 05:46:17;;;;;;;28.30;12.52;;;;;;;2.04;86.74;100987.91;4969760;28;20023;-89
2021/12/22 05:48:44;;;;;;;30.85;13.27;;;;;;;1.78;86.85;100950.72;4950062;28;20439;-89
2021/12/22 05:51:10;;;;;;;25.40;12.35;;;;;;;1.95;87.72;101008.72;4955720;28;20106;-89
2021/12/22 05:53:36;;;;;;;26.10;11.60;;;;;;;1.46;86.84;100882.84;4971058;28;20057;-89
2021/12/22 05:56:02;;;;;;;35.90;11.60;;;;;;;2.04;85.64;100993.16;4955315;28;20185;-89
2021/12/22 05:58:28;;;;;;;33.33;12.30;;;;;;;2.02;85.82;100994.84;4971112;28;20122;-89
2021/12/22 06:00:53;;;;;;;31.00;11.75;;;;;;;1.37;85.77;100911.53;4970403;28;20031;-89
2021/12/22 06:03:19;;;;;;;28.85;12.00;;;;;;;1.68;86.79;100968.91;4953746;28;20521;-89
2021/12/22 06:05:45;;;;;;;30.67;12.73;;;;;;;1.68;87.17;100956.66;4971315;28;20069;-89
2021/12/22 06:08:10;;;;;;;29.40;12.65;;;;;;;1.88;86.88;100970.13;4954243;28;20392;-89
2021/12/22 06:10:36;;;;;;;30.05;11.95;;;;;;;1.91;87.13;100962.31;4954546;28;20465;-89
2021/12/22 06:13:04;;;;;;;27.75;11.77;;;;;;;2.09;86.49;100988.84;4970848;28;20026;-89
2021/12/22 06:15:29;;;;;;;24.88;11.18;;;;;;;1.90;86.63;100952.66;4970224;28;20086;-88
2021/12/22 06:17:57;;;;;;;27.02;12.88;;;;;;;1.98;86.93;100996.53;4954484;28;20035;-89
2021/12/22 06:20:24;;;;;;;31.58;11.52;;;;;;;1.90;86.88;100987.66;4953744;28;20562;-88
2021/12/22 06:22:49;;;;;;;34.03;11.75;;;;;;;1.88;86.96;100972.75;4969725;28;20030;-89
2021/12/22 06:25:15;;;;;;;27.50;12.43;;;;;;;1.92;86.90;100985.94;4962158;28;20054;-89
2021/12/22 06:27:40;;;;;;;25.10;12.13;;;;;;;1.90;87.24;100974.53;4962772;28;20031;-89
2021/12/22 06:30:06;;;;;;;24.00;10.38;;;;;;;1.97;87.42;100992.16;4937037;29;20027;-89
2021/12/22 06:32:32;;;;;;;32.65;13.93;;;;;;;1.74;86.98;100969.88;4955028;29;20070;-89
2021/12/22 06:34:57;;;;;;;28.85;13.10;;;;;;;1.75;87.35;100990.00;4951785;28;20444;-89
2021/12/22 06:37:23;;;;;;;30.73;12.77;;;;;;;1.26;87.49;100900.84;4960629;28;20748;-89
2021/12/22 06:39:48;;;;;;;28.67;13.43;;;;;;;1.62;87.33;100982.75;4954257;29;20483;-89
2021/12/22 06:42:14;;;;;;;26.13;12.02;;;;;;;1.77;87.27;101001.41;4957508;28;20043;-89
2021/12/22 06:44:41;;;;;;;24.98;11.82;;;;;;;1.93;86.90;101024.44;4957016;28;20050;-89
2021/12/22 06:47:07;;;;;;;23.02;11.60;;;;;;;1.60;86.24;100981.84;4955955;28;20042;-89
2021/12/22 06:49:33;;;;;;;27.58;13.02;;;;;;;1.94;86.43;101020.97;4972884;28;20471;-89
2021/12/22 06:51:58;;;;;;;25.70;12.15;;;;;;;1.81;85.44;100979.63;4973228;28;20026;-89
2021/12/22 06:54:24;;;;;;;29.05;12.93;;;;;;;1.68;85.21;100959.28;4973240;28;20112;-88
2021/12/22 06:56:49;;;;;;;26.98;12.13;;;;;;;1.87;85.67;100992.84;4980388;28;20030;-89
2021/12/22 06:59:15;;;;;;;31.05;12.30;;;;;;;2.09;85.47;101036.94;4957117;28;20051;-89
2021/12/22 07:01:41;;;;;;;32.60;15.50;;;;;;;2.01;85.60;101029.81;4955984;28;20128;-89
2021/12/22 07:04:06;;;;;;;31.52;15.20;;;;;;;1.86;86.64;100998.94;4973144;28;20023;-89
2021/12/22 07:06:32;;;;;;;45.78;16.60;;;;;;;1.90;86.31;101003.38;4972900;28;20445;-89
2021/12/22 07:08:59;;;;;;;32.72;16.92;;;;;;;2.10;85.70;101038.75;4972769;28;20506;-89
2021/12/22 07:11:25;;;;;;;36.85;16.85;;;;;;;2.00;85.89;101028.94;4973287;28;20030;-89
2021/12/22 07:13:50;;;;;;;30.23;12.93;;;;;;;1.71;85.57;100977.72;4967363;28;20544;-89
2021/12/22 07:16:17;;;;;;;26.48;13.20;;;;;;;1.88;85.71;101026.06;4973778;28;20027;-89
2021/12/22 07:18:42;;;;;;;27.40;14.23;;;;;;;1.97;86.34;101041.09;4946333;28;20046;-88
2021/12/22 07:21:08;;;;;;;29.52;12.73;;;;;;;2.04;86.70;101054.34;4956850;28;20027;-89
2021/12/22 07:23:33;;;;;;;26.13;12.40;;;;;;;1.94;86.72;101060.31;4953583;29;20035;-89
2021/12/22 07:25:59;;;;;;;33.05;14.52;;;;;;;1.89;87.27;101063.69;4938044;29;20038;-89
2021/12/22 07:28:24;;;;;;;27.88;12.48;;;;;;;1.81;87.09;101028.56;4969773;28;20035;-89
2021/12/22 07:30:50;;;;;;;27.85;12.00;;;;;;;1.82;87.22;101015.50;4974007;28;20034;-89
2021/12/22 07:33:15;;;;;;;27.02;12.90;;;;;;;1.79;87.41;101004.06;4973140;28;20022;-89
2021/12/22 07:36:02;;;;;;;25.60;12.98;;;;;;;1.72;85.93;100997.81;4973725;28;20081;-89
2021/12/22 07:38:42;;;;;;;30.38;13.00;;;;;;;2.13;86.73;101072.00;4972573;28;20034;-89
2021/12/22 07:41:09;;;;;;;28.27;13.30;;;;;;;1.89;85.78;101048.84;4955640;28;20434;-89
2021/12/22 07:43:35;;;;;;;32.97;14.00;;;;;;;1.98;86.71;101053.34;4953290;28;20030;-89
2021/12/22 07:46:02;;;;;;;27.67;11.90;;;;;;;1.88;86.40;101036.56;4971854;28;20031;-89
2021/12/22 07:48:28;;;;;;;24.23;11.98;;;;;;;1.92;86.76;101048.91;4972261;28;20026;-89
2021/12/22 07:50:56;;;;;;;28.05;12.35;;;;;;;1.92;86.35;101027.91;4972926;28;20027;-89
2021/12/22 07:53:22;;;;;;;25.48;14.50;;;;;;;2.14;86.75;101061.53;4950805;28;20439;-89
2021/12/22 07:55:52;;;;;;;25.80;12.68;;;;;;;2.18;87.19;101063.38;4957610;28;20092;-89
2021/12/22 07:58:18;;;;;;;27.88;13.60;;;;;;;2.12;86.77;101060.66;4970963;28;20150;-89
2021/12/22 08:00:43;;;;;;;32.47;14.70;;;;;;;2.20;86.56;101051.16;4954794;28;20499;-89
2021/12/22 08:03:11;;;;;;;30.20;14.02;;;;;;;1.93;85.68;101019.19;4971010;28;20078;-89
2021/12/22 08:05:37;;;;;;;30.92;13.45;;;;;;;1.53;86.17;100973.84;4973184;28;20029;-89
2021/12/22 08:08:02;;;;;;;32.30;12.80;;;;;;;1.52;86.22;100966.81;4955211;28;20459;-89
2021/12/22 08:10:28;;;;;;;26.15;12.30;;;;;;;2.21;85.86;101063.41;4971543;28;20026;-89
2021/12/22 08:12:54;;;;;;;25.30;12.27;;;;;;;2.07;86.12;101019.44;4967155;28;20030;-89
2021/12/22 08:15:19;;;;;;;25.15;12.82;;;;;;;2.32;85.70;101061.84;4970425;28;20037;-89
2021/12/22 08:17:46;;;;;;;25.15;14.52;;;;;;;2.38;85.36;101061.97;4955838;28;20114;-88
2021/12/22 08:20:12;;;;;;;29.75;13.35;;;;;;;2.27;85.54;101036.41;4969010;28;20029;-89
2021/12/22 08:22:38;;;;;;;27.20;13.60;;;;;;;2.40;84.25;101057.63;4991588;28;20040;-89
2021/12/22 08:25:06;;;;;;;25.13;13.27;;;;;;;2.15;84.70;101041.44;4950363;28;20453;-89
2021/12/22 08:27:32;;;;;;;26.85;13.70;;;;;;;2.09;84.37;101015.97;4949881;28;20067;-89
2021/12/22 08:29:58;;;;;;;29.02;12.30;;;;;;;2.09;84.47;101025.59;4968558;28;20784;-89
2021/12/22 08:32:23;;;;;;;26.65;12.48;;;;;;;2.39;84.09;101049.72;4958305;28;20019;-89
2021/12/22 08:34:54;;;;;;;33.55;12.93;;;;;;;2.12;83.71;101000.28;4975656;28;20026;-89
2021/12/22 08:40:05;;;;;;;21.50;12.20;;;;;;;2.23;82.78;101029.31;4972597;28;20134;-89
2021/12/22 08:42:31;;;;;;;29.48;14.07;;;;;;;2.28;83.08;101031.19;4950742;28;20026;-89
2021/12/22 08:44:56;;;;;;;33.72;14.38;;;;;;;2.25;82.83;101039.00;4970972;28;20109;-89
2021/12/22 08:47:22;;;;;;;27.65;13.77;;;;;;;2.44;81.66;101040.16;4969096;28;20074;-89
2021/12/22 08:49:48;;;;;;;28.40;12.45;;;;;;;2.49;81.42;101043.75;4959839;28;20024;-89
2021/12/22 08:52:14;;;;;;;22.95;11.93;;;;;;;1.87;81.58;100943.00;4934573;28;20115;-88
2021/12/22 08:54:40;;;;;;;26.77;13.75;;;;;;;1.96;82.31;100948.41;4968799;28;20122;-89
2021/12/22 08:57:06;;;;;;;28.92;12.82;;;;;;;2.47;82.58;101040.25;4939931;28;20023;-89
2021/12/22 08:59:33;;;;;;;25.92;12.02;;;;;;;2.35;80.63;101004.19;4954476;28;20030;-89
2021/12/22 09:01:59;;;;;;;28.20;12.38;;;;;;;2.58;80.21;101055.31;4960342;28;20027;-89
2021/12/22 09:04:25;;;;;;;24.80;13.80;;;;;;;2.46;81.21;101023.59;4951412;29;20050;-89
2021/12/22 09:06:51;;;;;;;27.20;13.15;;;;;;;2.52;81.35;101018.44;4964420;28;20182;-89
2021/12/22 09:09:18;;;;;;;25.95;11.52;;;;;;;2.51;80.49;101011.44;4970285;28;20054;-89
2021/12/22 09:11:44;;;;;;;27.83;12.52;;;;;;;2.52;80.27;101017.56;4968699;28;20479;-89
2021/12/22 09:14:10;;;;;;;26.05;11.55;;;;;;;2.56;80.18;101020.25;4977641;28;20037;-89
2021/12/22 09:16:37;;;;;;;23.38;11.82;;;;;;;2.31;79.63;100965.59;4983588;28;20054;-89
2021/12/22 09:19:05;;;;;;;27.98;11.88;;;;;;;2.14;80.07;100951.31;4968074;28;20109;-89
2021/12/22 09:21:33;;;;;;;33.17;15.48;;;;;;;1.93;78.73;100924.75;4970347;28;20031;-89
2021/12/22 09:23:59;;;;;;;26.40;13.82;;;;;;;2.26;78.41;100972.53;4972108;28;20045;-89
2021/12/22 09:26:25;;;;;;;25.10;12.18;;;;;;;2.55;79.08;101023.72;4958200;28;20046;-89
2021/12/22 09:28:51;;;;;;;28.45;13.45;;;;;;;2.56;78.41;101028.13;4969900;28;20049;-89
2021/12/22 09:31:17;;;;;;;23.85;12.98;;;;;;;2.77;77.92;101048.56;4954086;28;20030;-89
2021/12/22 09:33:44;;;;;;;26.17;13.48;;;;;;;2.76;78.19;101049.44;4954052;28;20596;-89
2021/12/22 09:36:11;;;;;;;28.58;11.48;;;;;;;2.76;77.63;101059.06;4970588;28;20037;-90
2021/12/22 09:38:38;;;;;;;29.10;13.23;;;;;;;2.56;78.53;101030.75;4970217;28;20486;-89
2021/12/22 09:41:05;;;;;;;27.20;13.52;;;;;;;2.62;78.41;101036.09;4970516;28;20037;-89
2021/12/22 09:43:30;;;;;;;28.08;13.23;;;;;;;2.83;77.39;101056.56;4973107;28;20450;-89
2021/12/22 09:46:02;;;;;;;26.25;12.77;;;;;;;2.55;77.82;101013.22;4969598;28;20100;-89
2021/12/22 09:53:29;;;;;;;25.73;12.23;;;;;;;2.53;76.69;101020.22;4970942;28;20035;-89
2021/12/22 09:55:56;;;;;;;27.02;13.07;;;;;;;2.73;77.25;101054.66;4969839;28;20062;-89
2021/12/22 09:58:22;;;;;;;22.85;11.60;;;;;;;2.69;77.29;101027.47;4970866;28;20078;-89
2021/12/22 10:00:49;;;;;;;28.42;12.18;;;;;;;2.85;77.23;101039.06;4954430;28;20447;-90
2021/12/22 10:03:15;;;;;;;26.50;12.48;;;;;;;2.98;77.16;101038.41;4970357;28;20582;-89
2021/12/22 10:05:43;;;;;;;30.02;12.25;;;;;;;3.03;76.96;101033.22;4972666;28;20022;-89
2021/12/22 10:08:15;;;;;;;27.95;12.25;;;;;;;3.01;76.08;101019.16;4966403;28;20061;-89
2021/12/22 10:10:50;;;;;;;26.13;11.88;;;;;;;3.23;75.37;101037.00;4974537;28;20097;-91
2021/12/22 10:13:23;;;;;;;28.90;13.48;;;;;;;2.94;73.37;101004.16;4957965;28;20129;-90
2021/12/22 10:15:48;;;;;;;29.98;13.07;;;;;;;3.20;73.34;101044.81;4973966;28;20031;-90
2021/12/22 10:18:18;;;;;;;27.90;12.40;;;;;;;3.05;74.03;101020.97;4951780;28;20043;-89
2021/12/22 10:20:46;;;;;;;25.95;11.85;;;;;;;3.09;73.34;101009.63;4974166;28;20026;-89
2021/12/22 10:23:31;;;;;;;27.35;12.45;;;;;;;2.96;71.52;101005.06;4991788;28;20022;-89
2021/12/22 10:25:59;;;;;;;23.23;11.63;;;;;;;3.19;73.23;101016.78;4965851;28;20054;-89
2021/12/22 10:28:28;;;;;;;23.73;11.82;;;;;;;3.15;72.28;101017.56;4956665;28;20035;-89
2021/12/22 10:30:58;;;;;;;24.55;12.15;;;;;;;3.00;73.06;100991.97;4957631;28;20390;-89
2021/12/22 10:33:31;;;;;;;27.45;12.38;;;;;;;3.20;72.68;101008.91;4973827;28;20046;-89
2021/12/22 10:35:58;;;;;;;28.55;11.52;;;;;;;3.36;72.81;101010.84;4974167;28;20543;-89
2021/12/22 10:38:26;;;;;;;27.23;13.25;;;;;;;3.17;72.51;100977.31;4973760;28;20065;-89
2021/12/22 10:41:09;;;;;;;26.98;14.10;;;;;;;3.41;73.08;100985.50;4957101;28;20034;-89
2021/12/22 10:43:42;;;;;;;28.33;12.15;;;;;;;3.61;71.42;100959.41;4975740;28;20089;-89
2021/12/22 10:46:13;;;;;;;37.97;14.23;;;;;;;4.21;71.26;100993.31;4948025;28;20039;-89
2021/12/22 10:51:33;;;;;;;24.42;11.43;;;;;;;4.52;67.68;100977.78;4974466;28;20457;-89
2021/12/22 10:54:05;;;;;;;27.80;12.48;;;;;;;4.07;66.64;100938.81;4974295;28;20062;-89
2021/12/22 10:56:32;;;;;;;23.98;11.75;;;;;;;4.51;67.83;100978.66;4973364;28;20066;-89
2021/12/22 10:59:08;;;;;;;28.33;12.45;;;;;;;4.48;66.76;100941.72;4956784;28;20038;-89
2021/12/22 11:01:35;;;;;;;28.65;12.68;;;;;;;4.51;64.71;100920.69;4956974;28;20035;-89
2021/12/22 11:04:04;;;;;;;27.00;14.27;;;;;;;4.98;65.49;100956.09;4947174;28;20035;-89
2021/12/22 11:06:33;;;;;;;26.70;11.23;;;;;;;4.74;64.49;100934.88;4972840;28;20034;-89
2021/12/22 11:09:05;;;;;;;27.27;12.60;;;;;;;5.11;63.51;100960.53;4971599;28;20574;-89
2021/12/22 11:11:36;;;;;;;26.67;13.15;;;;;;;5.03;63.60;100862.06;4974136;28;20468;-89
2021/12/22 11:14:05;;;;;;;25.85;13.73;;;;;;;5.73;61.17;100942.28;4956545;28;20394;-89
2021/12/22 11:16:30;;;;;;;21.88;11.88;;;;;;;5.55;60.73;100939.59;4971066;28;20125;-89
2021/12/22 11:19:09;;;;;;;21.58;11.80;;;;;;;5.63;61.57;100910.56;4956154;28;20113;-89
2021/12/22 11:21:36;;;;;;;26.67;12.70;;;;;;;6.21;60.13;100900.03;4973440;28;20049;-89
2021/12/22 11:24:02;;;;;;;27.75;10.85;;;;;;;6.26;58.88;100889.50;4971278;28;20038;-89
2021/12/22 11:26:28;;;;;;;24.85;11.27;;;;;;;6.42;59.17;100937.03;4975404;28;20030;-89
2021/12/22 11:28:54;;;;;;;23.10;11.93;;;;;;;6.56;58.71;100937.00;4971465;28;20121;-89
2021/12/22 11:31:20;;;;;;;25.80;11.60;;;;;;;6.32;59.23;100916.78;4972295;28;20138;-90
2021/12/22 11:33:46;;;;;;;25.55;11.25;;;;;;;6.65;58.94;100942.28;4956084;28;20031;-89
2021/12/22 11:36:14;;;;;;;30.23;13.50;;;;;;;6.84;58.33;100932.53;4956886;28;20026;-89
2021/12/22 11:38:43;;;;;;;25.13;13.20;;;;;;;6.64;57.55;100863.84;4956340;28;20049;-89
2021/12/22 11:41:13;;;;;;;21.70;11.07;;;;;;;7.00;57.04;100850.47;4973661;28;20026;-89
2021/12/22 11:43:40;;;;;;;21.40;11.05;;;;;;;7.24;55.81;100911.22;4955591;28;20053;-89